createdAt,value
2018-07-10T00:07:13.285Z,37.62
2018-07-10T00:12:16.758Z,37.06
2018-07-10T00:17:20.625Z,37.69
2018-07-10T00:22:24.097Z,37.05
2018-07-10T00:27:27.556Z,36.91
2018-07-10T00:32:31.077Z,37.02
2018-07-10T00:37:34.883Z,37.66
2018-07-10T00:42:38.689Z,37.24
2018-07-10T00:47:42.121Z,37.55
2018-07-10T00:52:45.637Z,37.69
2018-07-10T00:57:49.359Z,37.08
2018-07-10T01:02:52.821Z,37.68
2018-07-10T01:07:57.405Z,37.38
2018-07-10T01:13:01.041Z,37.45
2018-07-10T01:18:04.584Z,37.26
2018-07-10T01:23:08.074Z,37.70
2018-07-10T01:28:11.574Z,37.83
2018-07-10T01:33:15.192Z,37.62
2018-07-10T01:38:20.365Z,37.77
2018-07-10T01:43:24.066Z,37.54
2018-07-10T01:48:27.786Z,37.20
2018-07-10T01:53:31.282Z,37.91
2018-07-10T01:58:35.111Z,37.86
2018-07-10T02:03:38.537Z,37.42
2018-07-10T02:08:42.069Z,37.41
2018-07-10T02:13:45.598Z,38.17
2018-07-10T02:18:49.461Z,37.67
2018-07-10T02:23:53.940Z,38.22
2018-07-10T02:28:58.281Z,37.69
2018-07-10T02:34:02.250Z,37.71
2018-07-10T02:39:05.989Z,37.77
2018-07-10T02:44:09.434Z,37.86
2018-07-10T02:49:20.021Z,38.29
2018-07-10T02:54:26.266Z,38.47
2018-07-10T02:59:36.873Z,38.22
2018-07-10T03:04:41.878Z,38.92
2018-07-10T03:09:46.578Z,38.55
2018-07-10T03:14:50.006Z,38.94
2018-07-10T03:19:53.637Z,39.68
2018-07-10T03:24:57.615Z,40.02
2018-07-10T03:30:02.361Z,40.02
2018-07-10T03:35:05.909Z,40.08
2018-07-10T03:40:09.532Z,39.75
2018-07-10T03:45:13.384Z,40.15
2018-07-10T03:50:16.906Z,40.02
2018-07-10T03:55:20.385Z,40.32
2018-07-10T04:00:23.954Z,39.59
2018-07-10T04:05:27.961Z,40.16
2018-07-10T04:10:36.724Z,39.85
2018-07-10T04:15:41.141Z,40.33
2018-07-10T04:21:28.845Z,39.97
2018-07-10T04:26:35.199Z,39.61
2018-07-10T04:31:56.963Z,40.15
2018-07-10T04:37:06.177Z,39.69
2018-07-10T04:44:17.322Z,39.54
2018-07-10T04:49:30.152Z,39.59
2018-07-10T04:54:40.845Z,39.68
2018-07-10T04:59:44.741Z,39.91
2018-07-10T05:04:48.214Z,39.86
2018-07-10T05:09:51.726Z,39.43
2018-07-10T05:14:56.681Z,39.90
2018-07-10T05:20:00.426Z,39.78
2018-07-10T05:25:03.892Z,39.93
2018-07-10T05:30:07.369Z,40.08
2018-07-10T05:35:10.857Z,39.50
2018-07-10T05:40:14.428Z,39.77
2018-07-10T05:45:22.589Z,39.63
2018-07-10T05:50:29.374Z,39.65
2018-07-10T05:55:33.212Z,40.02
2018-07-10T06:00:36.708Z,39.94
2018-07-10T06:05:40.732Z,40.35
2018-07-10T06:10:44.201Z,40.37
2018-07-10T06:15:47.810Z,40.69
2018-07-10T06:20:51.326Z,40.05
2018-07-10T06:25:54.778Z,40.49
2018-07-10T06:31:04.070Z,40.32
2018-07-10T06:36:24.606Z,40.55
2018-07-10T06:41:28.070Z,40.03
2018-07-10T06:46:39.849Z,40.19
2018-07-10T06:51:43.337Z,40.18
2018-07-10T06:56:48.574Z,40.24
2018-07-10T07:01:52.112Z,40.19
2018-07-10T07:06:55.673Z,40.35
2018-07-10T07:11:59.085Z,41.39
2018-07-10T07:17:02.570Z,41.71
2018-07-10T07:22:06.260Z,43.29
2018-07-10T07:27:09.671Z,43.25
2018-07-10T07:32:13.400Z,42.64
2018-07-10T07:37:16.828Z,42.33
2018-07-10T07:42:20.274Z,42.13
2018-07-10T07:47:26.900Z,42.33
2018-07-10T07:52:31.778Z,41.94
2018-07-10T07:57:35.230Z,42.27
2018-07-10T08:02:38.674Z,41.99
2018-07-10T08:07:42.296Z,42.06
2018-07-10T08:12:45.933Z,42.30
2018-07-10T08:17:49.405Z,41.95
2018-07-10T08:22:52.933Z,42.55
2018-07-10T08:27:56.488Z,42.95
2018-07-10T08:32:59.996Z,42.22
2018-07-10T08:38:03.421Z,42.59
2018-07-10T08:43:06.944Z,42.54
2018-07-10T08:48:10.381Z,42.34
2018-07-10T08:53:13.834Z,42.22
2018-07-10T08:58:17.284Z,41.87
2018-07-10T09:03:20.737Z,42.61
2018-07-10T09:08:24.226Z,42.20
2018-07-10T09:13:27.750Z,42.81
2018-07-10T09:18:32.086Z,42.47
2018-07-10T09:23:36.348Z,42.77
2018-07-10T09:28:39.855Z,43.37
2018-07-10T09:33:43.542Z,42.82
2018-07-10T09:38:47.226Z,42.98
2018-07-10T09:43:51.640Z,43.40
2018-07-10T09:48:55.261Z,44.25
2018-07-10T09:53:58.886Z,44.42
2018-07-10T09:59:02.341Z,43.71
2018-07-10T10:04:05.910Z,44.13
2018-07-10T10:09:09.401Z,43.63
2018-07-10T10:14:13.164Z,43.90
2018-07-10T10:19:16.576Z,44.69
2018-07-10T10:24:20.020Z,44.44
2018-07-10T10:29:23.717Z,44.32
2018-07-10T10:34:27.421Z,44.69
2018-07-10T10:39:30.888Z,45.04
2018-07-10T10:44:34.446Z,45.59
2018-07-10T10:49:38.171Z,44.81
2018-07-10T10:54:41.658Z,45.20
2018-07-10T10:59:45.791Z,45.34
2018-07-10T11:04:51.010Z,44.53
2018-07-10T11:09:54.483Z,45.04
2018-07-10T11:14:58.287Z,45.18
2018-07-10T11:20:13.769Z,45.82
2018-07-10T11:25:17.286Z,45.98
2018-07-10T11:30:20.951Z,45.44
2018-07-10T11:35:24.882Z,45.93
2018-07-10T11:40:28.565Z,45.50
2018-07-10T11:45:32.236Z,45.68
2018-07-10T11:50:35.686Z,45.65
2018-07-10T11:55:39.207Z,45.57
2018-07-10T12:00:42.671Z,45.45
2018-07-10T12:05:46.254Z,45.59
2018-07-10T12:10:59.679Z,45.21
2018-07-10T12:16:03.134Z,45.82
2018-07-10T12:21:07.303Z,45.50
2018-07-10T12:26:10.839Z,45.83
2018-07-10T12:31:14.535Z,45.79
2018-07-10T12:36:18.049Z,45.76
2018-07-10T12:41:21.510Z,45.66
2018-07-10T12:46:25.015Z,45.19
2018-07-10T12:51:28.490Z,44.86
2018-07-10T12:56:32.054Z,44.58
2018-07-10T13:01:35.676Z,44.37
2018-07-10T13:06:39.154Z,43.61
2018-07-10T13:11:42.602Z,43.93
2018-07-10T13:16:46.034Z,43.82
2018-07-10T13:21:49.540Z,43.82
2018-07-10T13:26:53.240Z,43.50
2018-07-10T13:31:56.777Z,43.90
2018-07-10T13:37:00.290Z,43.19
2018-07-10T13:42:04.368Z,43.53
2018-07-10T13:47:08.014Z,43.00
2018-07-10T13:52:11.975Z,42.76
2018-07-10T13:57:15.785Z,42.50
2018-07-10T14:02:19.589Z,42.54
2018-07-10T14:07:23.204Z,41.86
2018-07-10T14:12:27.255Z,41.92
2018-07-10T14:17:30.695Z,42.10
2018-07-10T14:22:34.315Z,41.88
2018-07-10T14:27:38.076Z,41.35
2018-07-10T14:32:41.722Z,41.59
2018-07-10T14:37:45.421Z,41.27
2018-07-10T14:42:50.851Z,41.06
2018-07-10T14:47:55.129Z,41.26
2018-07-10T14:52:58.650Z,40.80
2018-07-10T14:58:02.575Z,41.46
2018-07-10T15:03:06.075Z,41.07
2018-07-10T15:08:09.911Z,41.26
2018-07-10T15:13:13.382Z,41.24
2018-07-10T15:18:22.047Z,41.30
2018-07-10T15:23:25.664Z,41.42
2018-07-10T15:28:29.017Z,41.28
2018-07-10T15:33:32.582Z,40.77
2018-07-10T15:38:36.286Z,41.05
2018-07-10T15:43:40.150Z,40.54
2018-07-10T15:48:43.970Z,40.35
2018-07-10T15:53:47.475Z,40.37
2018-07-10T15:58:51.004Z,40.42
2018-07-10T16:03:55.327Z,40.47
2018-07-10T16:09:06.926Z,40.38
2018-07-10T16:14:11.674Z,40.29
2018-07-10T16:19:18.228Z,40.59
2018-07-10T16:24:22.565Z,40.75
2018-07-10T16:29:26.441Z,40.26
2018-07-10T16:34:30.393Z,40.47
2018-07-10T16:39:33.980Z,40.70
2018-07-10T16:44:38.551Z,40.55
2018-07-10T16:49:45.411Z,40.51
2018-07-10T16:54:49.227Z,40.54
2018-07-10T16:59:52.921Z,39.75
2018-07-10T17:04:56.439Z,40.43
2018-07-10T17:09:59.989Z,39.96
2018-07-10T17:15:03.668Z,40.33
2018-07-10T17:20:11.362Z,39.50
2018-07-10T17:25:15.751Z,39.44
2018-07-10T17:30:19.233Z,39.63
2018-07-10T17:35:22.668Z,40.28
2018-07-10T17:40:26.401Z,39.86
2018-07-10T17:45:29.869Z,38.70
2018-07-10T17:50:33.627Z,39.63
2018-07-10T17:55:37.358Z,39.88
2018-07-10T18:00:40.958Z,39.20
2018-07-10T18:05:44.528Z,39.42
2018-07-10T18:10:47.953Z,38.69
2018-07-10T18:15:51.409Z,39.16
2018-07-10T18:20:55.016Z,39.20
2018-07-10T18:25:58.476Z,38.86
2018-07-10T18:31:02.160Z,38.65
2018-07-10T18:36:05.637Z,38.91
2018-07-10T18:41:09.057Z,38.49
2018-07-10T18:46:12.690Z,38.46
2018-07-10T18:51:16.461Z,38.87
2018-07-10T18:56:20.409Z,39.28
2018-07-10T19:01:32.690Z,39.60
2018-07-10T19:06:36.633Z,39.58
2018-07-10T19:11:40.855Z,39.48
2018-07-10T19:16:44.639Z,39.55
2018-07-10T19:21:55.446Z,39.73
2018-07-10T19:26:59.894Z,40.14
2018-07-10T19:32:03.608Z,40.48
2018-07-10T19:37:07.462Z,39.79
2018-07-10T19:42:11.133Z,39.83
2018-07-10T19:47:14.854Z,40.33
2018-07-10T19:52:18.891Z,39.76
2018-07-10T19:57:28.537Z,40.44
2018-07-10T20:02:32.420Z,39.96
2018-07-10T20:07:47.516Z,39.79
2018-07-10T20:13:11.546Z,40.21
2018-07-10T20:20:26.033Z,40.40
2018-07-10T20:25:52.179Z,40.29
2018-07-10T20:31:03.566Z,40.17
2018-07-10T20:36:07.536Z,40.30
2018-07-10T20:41:12.466Z,40.26
2018-07-10T20:46:16.910Z,40.70
2018-07-10T20:51:20.713Z,40.82
2018-07-10T20:56:32.754Z,40.89
2018-07-10T21:01:37.789Z,40.75
2018-07-10T21:07:04.223Z,40.27
2018-07-10T21:12:14.474Z,40.23
2018-07-10T21:17:18.869Z,40.99
2018-07-10T21:24:36.726Z,40.53
2018-07-10T21:29:51.574Z,40.13
2018-07-10T21:34:55.242Z,40.70
2018-07-10T21:41:17.301Z,40.75
2018-07-10T21:46:59.883Z,40.14
2018-07-10T21:52:03.334Z,40.10
2018-07-10T21:57:06.897Z,40.57
2018-07-10T22:02:10.568Z,40.07
2018-07-10T22:07:15.590Z,40.57
2018-07-10T22:12:20.743Z,40.42
2018-07-10T22:17:27.334Z,39.99
2018-07-10T22:22:33.036Z,40.48
2018-07-10T22:27:40.401Z,39.98
2018-07-10T22:32:49.434Z,39.79
2018-07-10T22:37:53.448Z,39.72
2018-07-10T22:42:57.174Z,40.18
2018-07-10T22:48:00.890Z,40.10
2018-07-10T22:53:04.367Z,40.18
2018-07-10T22:58:08.558Z,39.61
2018-07-10T23:03:21.684Z,39.98
2018-07-10T23:08:33.841Z,39.93
2018-07-10T23:13:39.112Z,39.89
2018-07-10T23:18:44.078Z,40.11
2018-07-10T23:23:48.573Z,39.72
2018-07-10T23:28:53.827Z,39.56
2018-07-10T23:34:01.994Z,39.90
2018-07-10T23:39:10.857Z,40.13
2018-07-10T23:44:14.370Z,39.87
2018-07-10T23:49:18.410Z,39.59
2018-07-10T23:54:21.938Z,39.83
2018-07-10T23:59:25.543Z,39.49
